createdAt,value
2023-04-01T00:00:00.354Z,97537.78
2023-04-01T00:02:27.135Z,97551.28
2023-04-01T00:04:53.944Z,97544.56
2023-04-01T00:07:20.676Z,97537.88
2023-04-01T00:09:47.516Z,97536.19
2023-04-01T00:12:14.263Z,97531.06
2023-04-01T00:14:41.007Z,97543.75
2023-04-01T00:17:07.869Z,97534.47
2023-04-01T00:19:34.896Z,97525.94
2023-04-01T00:22:01.679Z,97532.72
2023-04-01T00:24:28.412Z,97531.84
2023-04-01T00:26:56.341Z,97532.66
2023-04-01T00:29:25.014Z,97520.03
2023-04-01T00:31:51.896Z,97539.38
2023-04-01T00:34:18.663Z,97536.06
2023-04-01T00:36:45.353Z,97536.91
2023-04-01T00:39:12.104Z,97537.78
2023-04-01T00:41:38.903Z,97542.09
2023-04-01T00:44:25.939Z,97539.56
2023-04-01T00:46:53.738Z,97536.28
2023-04-01T00:49:30.703Z,97547.16
2023-04-01T00:52:02.571Z,97545.56
2023-04-01T00:54:31.411Z,97552.34
2023-04-01T00:57:07.062Z,97548.25
2023-04-01T00:59:42.172Z,97537.31
2023-04-01T01:02:12.703Z,97545.88
2023-04-01T01:04:40.293Z,97546.78
2023-04-01T01:07:27.942Z,97545.84
2023-04-01T01:10:29.813Z,97541.72
2023-04-01T01:13:05.480Z,97541.81
2023-04-01T01:15:59.869Z,97552.00
2023-04-01T01:18:52.637Z,97538.56
2023-04-01T01:21:53.608Z,97543.75
2023-04-01T01:24:49.402Z,97541.28
2023-04-01T01:27:22.755Z,97540.50
2023-04-01T01:30:07.434Z,97537.09
2023-04-01T01:33:06.406Z,97538.81
2023-04-01T01:35:59.292Z,97543.03
2023-04-01T01:38:33.261Z,97542.22
2023-04-01T01:41:02.678Z,97549.78
2023-04-01T01:43:41.259Z,97548.91
2023-04-01T01:46:15.449Z,97543.00
2023-04-01T01:48:45.589Z,97531.97
2023-04-01T01:51:12.552Z,97524.41
2023-04-01T01:53:39.506Z,97535.44
2023-04-01T01:56:06.922Z,97532.16
2023-04-01T01:58:41.678Z,97532.22
2023-04-01T02:01:15.506Z,97538.22
2023-04-01T02:03:46.550Z,97549.19
2023-04-01T02:06:19.302Z,97540.72
2023-04-01T02:09:03.800Z,97538.97
2023-04-01T02:11:56.987Z,97537.28
2023-04-01T02:14:42.927Z,97537.31
2023-04-01T02:17:18.651Z,97539.06
2023-04-01T02:19:56.708Z,97543.25
2023-04-01T02:22:32.641Z,97540.72
2023-04-01T02:25:07.498Z,97542.38
2023-04-01T02:27:34.488Z,97542.41
2023-04-01T02:30:01.621Z,97544.94
2023-04-01T02:32:32.123Z,97544.06
2023-04-01T02:35:00.978Z,97543.16
2023-04-01T02:37:27.735Z,97560.03
2023-04-01T02:39:54.443Z,97535.50
2023-04-01T02:42:21.252Z,97547.31
2023-04-01T02:44:48.228Z,97543.88
2023-04-01T02:47:14.954Z,97548.97
2023-04-01T02:49:42.619Z,97543.88
2023-04-01T02:52:09.312Z,97553.19
2023-04-01T02:54:36.039Z,97540.56
2023-04-01T02:57:02.833Z,97554.91
2023-04-01T02:59:29.581Z,97558.25
2023-04-01T03:01:56.516Z,97562.50
2023-04-01T03:04:23.228Z,97565.03
2023-04-01T03:06:50.032Z,97552.31
2023-04-01T03:09:17.002Z,97552.38
2023-04-01T03:11:43.690Z,97556.50
2023-04-01T03:14:10.425Z,97557.38
2023-04-01T03:16:37.188Z,97557.22
2023-04-01T03:19:04.204Z,97556.38
2023-04-01T03:21:30.974Z,97563.09
2023-04-01T03:23:57.898Z,97558.03
2023-04-01T03:26:24.613Z,97562.28
2023-04-01T03:28:51.362Z,97572.47
2023-04-01T03:31:18.162Z,97572.47
2023-04-01T03:33:45.235Z,97572.47
2023-04-01T03:36:13.624Z,97577.50
2023-04-01T03:38:41.887Z,97578.31
2023-04-01T03:41:13.340Z,97584.31
2023-04-01T03:43:40.235Z,97569.13
2023-04-01T03:46:07.163Z,97575.78
2023-04-01T03:48:33.923Z,97582.50
2023-04-01T03:51:01.013Z,97586.69
2023-04-01T03:53:28.047Z,97582.44
2023-04-01T03:55:54.897Z,97587.56
2023-04-01T03:58:21.671Z,97585.91
2023-04-01T04:00:48.412Z,97587.56
2023-04-01T04:03:15.612Z,97585.91
2023-04-01T04:05:51.537Z,97585.03
2023-04-01T04:08:19.118Z,97595.28
2023-04-01T04:10:47.261Z,97593.75
2023-04-01T04:13:13.994Z,97606.13
2023-04-01T04:15:40.783Z,97598.72
2023-04-01T04:18:07.607Z,97595.47
2023-04-01T04:20:34.332Z,97609.09
2023-04-01T04:23:01.785Z,97603.25
2023-04-01T04:25:28.515Z,97610.84
2023-04-01T04:27:55.380Z,97619.31
2023-04-01T04:30:22.139Z,97612.50
2023-04-01T04:32:48.911Z,97615.84
2023-04-01T04:35:16.277Z,97613.31
2023-04-01T04:37:42.987Z,97626.78
2023-04-01T04:40:09.949Z,97621.63
2023-04-01T04:42:36.702Z,97624.19
2023-04-01T04:45:03.959Z,97619.94
2023-04-01T04:47:30.942Z,97628.44
2023-04-01T04:49:57.686Z,97626.78
2023-04-01T04:52:24.461Z,97628.44
2023-04-01T04:54:51.180Z,97634.25
2023-04-01T04:57:17.941Z,97638.50
2023-04-01T04:59:44.732Z,97635.09
2023-04-01T05:02:11.852Z,97637.56
2023-04-01T05:04:38.745Z,97649.38
2023-04-01T05:07:05.650Z,97648.53
2023-04-01T05:09:33.073Z,97642.72
2023-04-01T05:11:59.782Z,97653.59
2023-04-01T05:14:26.482Z,97645.19
2023-04-01T05:16:53.587Z,97657.84
2023-04-01T05:19:20.494Z,97662.06
2023-04-01T05:21:47.392Z,97653.56
2023-04-01T05:24:14.145Z,97656.97
2023-04-01T05:26:40.975Z,97657.84
2023-04-01T05:29:07.764Z,97658.75
2023-04-01T05:31:34.577Z,97663.81
2023-04-01T05:34:01.538Z,97660.41
2023-04-01T05:36:28.279Z,97667.13
2023-04-01T05:38:57.957Z,97668.72
2023-04-01T05:41:24.793Z,97671.25
2023-04-01T05:43:51.581Z,97673.72
2023-04-01T05:46:18.395Z,97671.19
2023-04-01T05:48:45.247Z,97685.47
2023-04-01T05:51:15.957Z,97688.00
2023-04-01T05:53:43.755Z,97684.59
2023-04-01T05:56:10.539Z,97688.75
2023-04-01T05:58:38.383Z,97679.41
2023-04-01T06:01:15.874Z,97685.28
2023-04-01T06:03:43.448Z,97686.13
2023-04-01T06:06:37.314Z,97686.94
2023-04-01T06:09:33.325Z,97691.06
2023-04-01T06:12:08.714Z,97694.56
2023-04-01T06:15:11.703Z,97685.13
2023-04-01T06:18:20.552Z,97688.53
2023-04-01T06:21:14.207Z,97690.34
2023-04-01T06:24:02.542Z,97689.53
2023-04-01T06:27:00.403Z,97703.03
2023-04-01T06:29:42.141Z,97707.22
2023-04-01T06:32:40.798Z,97713.16
2023-04-01T06:35:46.705Z,97702.00
2023-04-01T06:38:37.508Z,97718.81
2023-04-01T06:41:42.611Z,97712.84
2023-04-01T06:44:38.963Z,97715.44
2023-04-01T06:47:20.435Z,97713.75
2023-04-01T06:50:49.901Z,97725.41
2023-04-01T06:53:26.767Z,97724.63
2023-04-01T06:56:03.359Z,97731.22
2023-04-01T06:58:47.750Z,97736.09
2023-04-01T07:01:24.429Z,97737.56
2023-04-01T07:04:26.592Z,97734.06
2023-04-01T07:07:31.971Z,97746.69
2023-04-01T07:10:06.453Z,97741.41
2023-04-01T07:12:33.119Z,97736.16
2023-04-01T07:15:14.286Z,97744.53
2023-04-01T07:17:44.822Z,97747.03
2023-04-01T07:20:33.651Z,97751.19
2023-04-01T07:23:07.091Z,97749.50
2023-04-01T07:25:40.882Z,97759.53
2023-04-01T07:28:17.351Z,97752.63
2023-04-01T07:31:08.211Z,97766.84
2023-04-01T07:33:51.166Z,97766.72
2023-04-01T07:36:42.892Z,97769.09
2023-04-01T07:39:40.065Z,97776.66
2023-04-01T07:42:32.382Z,97776.50
2023-04-01T07:45:36.033Z,97778.19
2023-04-01T07:48:35.375Z,97788.34
2023-04-01T07:51:32.593Z,97799.34
2023-04-01T07:54:24.529Z,97790.81
2023-04-01T07:57:14.405Z,97805.09
2023-04-01T08:00:07.688Z,97802.50
2023-04-01T08:03:17.428Z,97805.81
2023-04-01T08:06:00.234Z,97814.22
2023-04-01T08:09:14.269Z,97820.91
2023-04-01T08:12:21.190Z,97827.63
2023-04-01T08:15:28.066Z,97825.94
2023-04-01T08:18:12.531Z,97831.75
2023-04-01T08:20:54.126Z,97835.84
2023-04-01T08:23:29.279Z,97831.59
2023-04-01T08:26:24.191Z,97847.56
2023-04-01T08:29:01.109Z,97839.03
2023-04-01T08:31:46.683Z,97844.75
2023-04-01T08:34:25.682Z,97841.25
2023-04-01T08:37:02.547Z,97852.16
2023-04-01T08:39:44.902Z,97848.66
2023-04-01T08:42:51.581Z,97853.59
2023-04-01T08:46:03.635Z,97864.69
2023-04-01T08:49:07.182Z,97874.78
2023-04-01T08:52:02.673Z,97866.94
2023-04-01T08:54:48.241Z,97876.88
2023-04-01T08:57:46.623Z,97882.38
2023-04-01T09:00:47.571Z,97893.06
2023-04-01T09:03:57.675Z,97897.84
2023-04-01T09:06:52.779Z,97889.19
2023-04-01T09:09:29.822Z,97895.81
2023-04-01T09:12:36.997Z,97902.31
2023-04-01T09:15:55.519Z,97896.25
2023-04-01T09:18:22.239Z,97897.16
2023-04-01T09:21:20.081Z,97897.91
2023-04-01T09:24:26.482Z,97903.69
2023-04-01T09:27:12.997Z,97907.00
2023-04-01T09:29:54.584Z,97914.44
2023-04-01T09:32:57.396Z,97917.63
2023-04-01T09:35:43.236Z,97910.75
2023-04-01T09:38:09.911Z,97915.53
2023-04-01T09:40:46.737Z,97930.38
2023-04-01T09:43:50.532Z,97919.88
2023-04-01T09:46:28.010Z,97924.81
2023-04-01T09:49:21.938Z,97927.88
2023-04-01T09:52:33.470Z,97929.28
2023-04-01T09:55:34.619Z,97930.78
2023-04-01T09:58:43.998Z,97935.53
2023-04-01T10:01:47.980Z,97944.50
2023-04-01T10:04:34.993Z,97951.75
2023-04-01T10:07:42.128Z,97956.47
2023-04-01T10:10:32.796Z,97952.84
2023-04-01T10:13:28.997Z,97953.59
2023-04-01T10:16:04.530Z,97956.91
2023-04-01T10:18:52.755Z,97965.19
2023-04-01T10:21:48.893Z,97964.06
2023-04-01T10:24:49.841Z,97965.59
2023-04-01T10:27:49.006Z,97959.44
2023-04-01T10:30:51.357Z,97969.53
2023-04-01T10:34:11.834Z,97968.44
2023-04-01T10:37:07.504Z,97969.75
2023-04-01T10:40:13.328Z,97982.97
2023-04-01T10:43:20.745Z,97974.91
2023-04-01T10:46:32.558Z,97984.59
2023-04-01T10:49:33.031Z,97981.63
2023-04-01T10:53:07.343Z,97984.56
2023-04-01T10:56:13.738Z,97977.38
2023-04-01T10:59:04.749Z,97982.97
2023-04-01T11:02:11.820Z,97976.81
2023-04-01T11:05:21.474Z,97991.28
2023-04-01T11:08:42.904Z,97999.81
2023-04-01T11:11:46.337Z,98000.75
2023-04-01T11:14:46.926Z,98001.72
2023-04-01T11:17:55.818Z,97997.88
2023-04-01T11:21:07.680Z,98005.94
2023-04-01T11:24:14.592Z,98001.28
2023-04-01T11:26:53.199Z,98002.53
2023-04-01T11:29:35.937Z,98007.97
2023-04-01T11:32:19.759Z,98007.44
2023-04-01T11:35:39.813Z,98013.03
2023-04-01T11:38:54.813Z,98027.06
2023-04-01T11:41:44.523Z,98023.75
2023-04-01T11:44:24.692Z,98029.09
2023-04-01T11:47:29.963Z,98023.53
2023-04-01T11:50:13.256Z,98036.38
2023-04-01T11:53:03.497Z,98039.06
2023-04-01T11:55:33.417Z,98039.00
2023-04-01T11:58:37.749Z,98042.31
2023-04-01T12:01:29.355Z,98044.91
2023-04-01T12:04:55.536Z,98048.09
2023-04-01T12:07:50.197Z,98054.44
2023-04-01T12:10:22.809Z,98062.34
2023-04-01T12:13:17.509Z,98065.88
2023-04-01T12:16:19.729Z,98056.94
2023-04-01T12:19:13.673Z,98065.19
2023-04-01T12:22:24.064Z,98060.03
2023-04-01T12:25:08.614Z,98072.69
2023-04-01T12:28:14.924Z,98073.44
2023-04-01T12:31:14.379Z,98080.09
2023-04-01T12:33:59.902Z,98088.41
2023-04-01T12:36:48.787Z,98076.34
2023-04-01T12:39:57.486Z,98077.19
2023-04-01T12:43:06.479Z,98085.66
2023-04-01T12:45:35.873Z,98082.22
2023-04-01T12:48:31.132Z,98083.03
2023-04-01T12:51:15.528Z,98085.72
2023-04-01T12:54:22.515Z,98089.25
2023-04-01T12:57:52.597Z,98095.31
2023-04-01T13:01:10.285Z,98098.41
2023-04-01T13:04:28.411Z,98097.09
2023-04-01T13:07:28.783Z,98101.00
2023-04-01T13:10:19.376Z,98098.25
2023-04-01T13:13:35.357Z,98101.09
2023-04-01T13:16:11.677Z,98100.66
2023-04-01T13:19:03.924Z,98105.16
2023-04-01T13:22:01.127Z,98108.88
2023-04-01T13:24:42.189Z,98119.41
2023-04-01T13:27:39.928Z,98122.47
2023-04-01T13:30:32.001Z,98121.44
2023-04-01T13:33:23.701Z,98124.78
2023-04-01T13:36:05.618Z,98131.44
2023-04-01T13:39:09.125Z,98139.63
2023-04-01T13:42:04.979Z,98130.97
2023-04-01T13:44:53.528Z,98139.31
2023-04-01T13:48:05.194Z,98139.31
2023-04-01T13:50:46.294Z,98140.97
2023-04-01T13:53:46.847Z,98137.50
2023-04-01T13:56:41.584Z,98143.69
2023-04-01T13:59:38.255Z,98139.75
2023-04-01T14:02:30.714Z,98145.91
2023-04-01T14:05:22.466Z,98137.44
2023-04-01T14:08:24.964Z,98147.41
2023-04-01T14:11:18.367Z,98150.75
2023-04-01T14:14:19.762Z,98163.34
2023-04-01T14:17:18.627Z,98156.59
2023-04-01T14:20:06.510Z,98160.97
2023-04-01T14:23:34.467Z,98151.63
2023-04-01T14:26:21.178Z,98157.03
2023-04-01T14:29:16.073Z,98164.78
2023-04-01T14:32:18.910Z,98168.22
2023-04-01T14:35:20.866Z,98163.81
2023-04-01T14:38:18.483Z,98170.13
2023-04-01T14:41:17.282Z,98175.69
2023-04-01T14:43:53.047Z,98178.84
2023-04-01T14:46:50.759Z,98182.16
2023-04-01T14:49:36.600Z,98186.31
2023-04-01T14:52:27.781Z,98193.09
2023-04-01T14:54:55.589Z,98191.34
2023-04-01T14:57:31.539Z,98196.22
2023-04-01T15:00:05.520Z,98192.63
2023-04-01T15:03:03.207Z,98191.69
2023-04-01T15:06:27.241Z,98200.44
2023-04-01T15:09:18.439Z,98205.78
2023-04-01T15:12:45.406Z,98206.00
2023-04-01T15:15:58.213Z,98206.34
2023-04-01T15:18:37.295Z,98215.84
2023-04-01T15:21:22.980Z,98211.53
2023-04-01T15:24:23.229Z,98219.22
2023-04-01T15:27:43.520Z,98214.91
2023-04-01T15:30:22.583Z,98223.50
2023-04-01T15:33:38.895Z,98229.69
2023-04-01T15:36:41.468Z,98228.09
2023-04-01T15:39:25.452Z,98234.91
2023-04-01T15:42:12.641Z,98237.53
2023-04-01T15:44:54.304Z,98231.91
2023-04-01T15:47:40.284Z,98244.06
2023-04-01T15:50:28.107Z,98243.72
2023-04-01T15:53:16.564Z,98248.50
2023-04-01T15:56:37.602Z,98250.31
2023-04-01T15:59:54.936Z,98263.19
2023-04-01T16:02:46.215Z,98258.88
2023-04-01T16:05:26.574Z,98262.00
2023-04-01T16:08:53.306Z,98271.91
2023-04-01T16:11:49.236Z,98269.88
2023-04-01T16:14:40.275Z,98275.16
2023-04-01T16:17:32.077Z,98284.78
2023-04-01T16:20:10.519Z,98287.56
2023-04-01T16:22:49.766Z,98289.50
2023-04-01T16:25:42.940Z,98288.88
2023-04-01T16:28:50.650Z,98290.97
2023-04-01T16:31:36.693Z,98298.03
2023-04-01T16:34:17.041Z,98306.75
2023-04-01T16:36:55.730Z,98310.28
2023-04-01T16:39:44.562Z,98315.56
2023-04-01T16:42:32.445Z,98319.06
2023-04-01T16:45:07.732Z,98315.06
2023-04-01T16:47:46.192Z,98317.75
2023-04-01T16:50:47.598Z,98322.19
2023-04-01T16:53:14.611Z,98335.16
2023-04-01T16:56:18.259Z,98330.31
2023-04-01T16:59:04.657Z,98337.38
2023-04-01T17:02:03.363Z,98340.19
2023-04-01T17:04:49.903Z,98342.06
2023-04-01T17:07:56.805Z,98345.63
2023-04-01T17:11:04.536Z,98350.13
2023-04-01T17:14:09.616Z,98356.38
2023-04-01T17:17:09.010Z,98360.84
2023-04-01T17:19:50.864Z,98364.34
2023-04-01T17:22:38.501Z,98363.63
2023-04-01T17:25:18.489Z,98379.00
2023-04-01T17:28:00.474Z,98371.59
2023-04-01T17:30:30.124Z,98378.50
2023-04-01T17:33:34.963Z,98383.84
2023-04-01T17:36:10.507Z,98390.91
2023-04-01T17:39:36.599Z,98385.22
2023-04-01T17:42:15.404Z,98390.56
2023-04-01T17:45:25.733Z,98398.41
2023-04-01T17:48:32.452Z,98397.03
2023-04-01T17:51:40.741Z,98407.38
2023-04-01T17:54:47.380Z,98412.56
2023-04-01T17:57:49.224Z,98411.88
2023-04-01T18:00:30.093Z,98411.94
2023-04-01T18:03:21.388Z,98422.84
2023-04-01T18:06:27.059Z,98421.31
2023-04-01T18:09:24.914Z,98429.88
2023-04-01T18:12:18.239Z,98429.09
2023-04-01T18:15:29.323Z,98434.63
2023-04-01T18:18:18.411Z,98446.13
2023-04-01T18:21:06.106Z,98444.63
2023-04-01T18:24:02.218Z,98454.13
2023-04-01T18:26:34.495Z,98453.13
2023-04-01T18:29:20.129Z,98457.75
2023-04-01T18:32:07.992Z,98460.72
2023-04-01T18:35:00.222Z,98465.28
2023-04-01T18:37:40.279Z,98466.22
2023-04-01T18:40:44.355Z,98477.38
2023-04-01T18:43:40.735Z,98480.13
2023-04-01T18:46:24.566Z,98476.78
2023-04-01T18:49:47.210Z,98485.38
2023-04-01T18:52:40.089Z,98487.22
2023-04-01T18:55:26.364Z,98487.25
2023-04-01T18:58:15.497Z,98487.31
2023-04-01T19:01:03.603Z,98490.63
2023-04-01T19:04:17.588Z,98496.59
2023-04-01T19:06:59.306Z,98503.41
2023-04-01T19:09:28.316Z,98505.09
2023-04-01T19:13:05.911Z,98506.09
2023-04-01T19:15:50.816Z,98514.03
2023-04-01T19:18:39.579Z,98514.19
2023-04-01T19:21:31.410Z,98519.34
2023-04-01T19:25:00.744Z,98519.44
2023-04-01T19:27:47.128Z,98518.69
2023-04-01T19:30:48.250Z,98520.44
2023-04-01T19:34:10.104Z,98528.94
2023-04-01T19:37:09.468Z,98525.66
2023-04-01T19:40:20.436Z,98524.88
2023-04-01T19:43:06.952Z,98535.09
2023-04-01T19:45:54.314Z,98535.09
2023-04-01T19:49:05.294Z,98530.13
2023-04-01T19:52:05.095Z,98537.00
2023-04-01T19:55:18.439Z,98539.59
2023-04-01T19:57:59.694Z,98541.34
2023-04-01T20:00:52.640Z,98550.63
2023-04-01T20:03:48.413Z,98549.78
2023-04-01T20:06:44.300Z,98549.00
2023-04-01T20:09:49.485Z,98562.63
2023-04-01T20:12:25.451Z,98555.00
2023-04-01T20:14:59.590Z,98565.16
2023-04-01T20:17:45.664Z,98569.34
2023-04-01T20:20:12.362Z,98573.53
2023-04-01T20:22:45.381Z,98571.81
2023-04-01T20:25:33.100Z,98570.19
2023-04-01T20:28:20.755Z,98578.66
2023-04-01T20:31:02.892Z,98577.84
2023-04-01T20:33:58.505Z,98585.47
2023-04-01T20:36:28.139Z,98579.63
2023-04-01T20:39:41.508Z,98583.84
2023-04-01T20:42:36.243Z,98594.03
2023-04-01T20:45:36.350Z,98596.63
2023-04-01T20:48:30.513Z,98597.47
2023-04-01T20:51:19.225Z,98600.03
2023-04-01T20:54:12.679Z,98598.34
2023-04-01T20:57:01.854Z,98608.47
2023-04-01T20:59:48.332Z,98610.97
2023-04-01T21:02:50.729Z,98604.19
2023-04-01T21:05:17.417Z,98610.13
2023-04-01T21:08:13.585Z,98615.97
2023-04-01T21:11:12.536Z,98611.75
2023-04-01T21:14:26.194Z,98613.47
2023-04-01T21:17:06.722Z,98621.94
2023-04-01T21:20:23.525Z,98622.75
2023-04-01T21:23:22.604Z,98626.97
2023-04-01T21:26:27.853Z,98638.00
2023-04-01T21:29:50.933Z,98635.41
2023-04-01T21:32:42.060Z,98643.03
2023-04-01T21:35:53.687Z,98645.53
2023-04-01T21:38:45.353Z,98654.81
2023-04-01T21:41:34.979Z,98652.22
2023-04-01T21:44:41.847Z,98654.72
2023-04-01T21:47:52.344Z,98666.59
2023-04-01T21:50:49.215Z,98668.28
2023-04-01T21:53:51.424Z,98676.72
2023-04-01T21:56:45.927Z,98677.56
2023-04-01T21:59:53.555Z,98682.69
2023-04-01T22:02:35.929Z,98679.38
2023-04-01T22:05:48.066Z,98687.81
2023-04-01T22:08:58.704Z,98697.19
2023-04-01T22:11:58.549Z,98695.50
2023-04-01T22:15:03.371Z,98703.13
2023-04-01T22:17:38.820Z,98706.47
2023-04-01T22:20:16.305Z,98714.91
2023-04-01T22:23:30.933Z,98720.72
2023-04-01T22:26:06.721Z,98715.69
2023-04-01T22:29:30.984Z,98730.06
2023-04-01T22:32:20.969Z,98727.59
2023-04-01T22:35:02.143Z,98736.03
2023-04-01T22:38:09.070Z,98737.75
2023-04-01T22:40:45.181Z,98742.94
2023-04-01T22:43:44.727Z,98748.88
2023-04-01T22:46:54.656Z,98754.03
2023-04-01T22:49:35.869Z,98755.91
2023-04-01T22:52:29.511Z,98762.88
2023-04-01T22:55:10.191Z,98770.63
2023-04-01T22:57:40.106Z,98776.66
2023-04-01T23:00:21.429Z,98772.50
2023-04-01T23:03:10.291Z,98786.91
2023-04-01T23:05:48.694Z,98791.19
2023-04-01T23:08:43.565Z,98793.84
2023-04-01T23:11:19.705Z,98796.44
2023-04-01T23:13:59.453Z,98807.47
2023-04-01T23:16:45.020Z,98814.31
2023-04-01T23:19:21.324Z,98815.19
2023-04-01T23:22:02.003Z,98817.78
2023-04-01T23:24:52.175Z,98816.94
2023-04-01T23:27:31.538Z,98833.00
2023-04-01T23:30:00.274Z,98828.88
2023-04-01T23:32:28.969Z,98839.06
2023-04-01T23:35:01.401Z,98846.75
2023-04-01T23:37:31.894Z,98846.81
2023-04-01T23:40:02.146Z,98845.13
2023-04-01T23:42:34.669Z,98856.97
2023-04-01T23:45:28.696Z,98863.72
2023-04-01T23:47:59.311Z,98869.72
2023-04-01T23:50:28.640Z,98867.22
2023-04-01T23:53:04.968Z,98881.59
2023-04-01T23:55:36.339Z,98884.16
2023-04-01T23:58:22.665Z,98888.41
